createdAt,value
2023-10-05T10:32:50.589Z,21.04
2023-10-05T10:35:28.565Z,21.10
2023-10-05T10:38:00.493Z,21.06
2023-10-05T10:40:29.080Z,21.00
2023-10-05T10:43:04.854Z,20.98
2023-10-05T10:45:35.346Z,21.02
2023-10-05T10:48:10.858Z,21.02
2023-10-05T10:50:39.448Z,21.05
2023-10-05T10:53:18.551Z,21.04
2023-10-05T10:55:53.338Z,21.02
2023-10-05T10:58:26.002Z,20.93
2023-10-05T11:00:59.052Z,20.96
2023-10-05T11:03:28.556Z,21.02
2023-10-05T11:05:57.415Z,21.03
2023-10-05T11:08:32.030Z,21.10
2023-10-05T11:11:12.377Z,21.24
2023-10-05T11:14:07.515Z,21.36
2023-10-05T11:16:45.764Z,21.34
2023-10-05T11:19:30.123Z,21.30
2023-10-05T11:22:06.622Z,21.32
2023-10-05T11:24:40.940Z,21.40
2023-10-05T11:27:16.114Z,21.28
2023-10-05T11:29:47.570Z,21.22
2023-10-05T11:32:45.536Z,21.27
2023-10-05T11:35:20.153Z,21.41
2023-10-05T11:38:01.366Z,21.55
2023-10-05T11:40:32.971Z,21.65
2023-10-05T11:43:14.754Z,21.67
2023-10-05T11:46:24.920Z,21.72
2023-10-05T11:48:56.576Z,21.76
2023-10-05T11:51:42.769Z,21.91
2023-10-05T11:54:12.696Z,21.99
2023-10-05T11:56:41.828Z,22.16
2023-10-05T11:59:12.886Z,22.44
2023-10-05T12:01:42.166Z,22.61
2023-10-05T12:04:11.565Z,22.62
2023-10-05T12:06:41.270Z,22.35
2023-10-05T12:09:29.013Z,22.23
2023-10-05T12:11:59.331Z,22.18
2023-10-05T12:14:28.492Z,22.16
2023-10-05T12:16:58.387Z,22.22
2023-10-05T12:19:30.211Z,22.29
2023-10-05T12:22:15.268Z,22.33
2023-10-05T12:24:43.965Z,22.30
2023-10-05T12:27:15.342Z,22.27
2023-10-05T12:29:46.471Z,22.28
2023-10-05T12:32:15.436Z,22.29
2023-10-05T12:34:49.997Z,22.17
2023-10-05T12:37:19.425Z,22.11
2023-10-05T12:39:48.872Z,22.18
2023-10-05T12:42:20.223Z,22.20
2023-10-05T12:44:50.046Z,22.23
2023-10-05T12:47:18.378Z,22.19
2023-10-05T12:49:46.921Z,22.08
2023-10-05T12:52:17.664Z,21.87
2023-10-05T12:54:45.785Z,21.64
2023-10-05T12:57:21.448Z,21.37
2023-10-05T12:59:51.325Z,21.17
2023-10-05T13:02:20.498Z,21.00
2023-10-05T13:04:49.019Z,20.88
2023-10-05T13:07:23.239Z,20.76
2023-10-05T13:10:01.923Z,20.70
2023-10-05T13:12:32.855Z,20.70
2023-10-05T13:15:05.078Z,20.63
2023-10-05T13:17:39.298Z,20.60
2023-10-05T13:20:16.603Z,20.65
2023-10-05T13:22:49.856Z,20.70
2023-10-05T13:25:18.300Z,20.71
2023-10-05T13:27:46.684Z,20.74
2023-10-05T13:30:23.889Z,20.75
2023-10-05T13:33:10.240Z,20.73
2023-10-05T13:35:38.484Z,20.74
2023-10-05T13:38:08.819Z,20.77
2023-10-05T13:40:37.634Z,20.81
2023-10-05T13:43:06.374Z,20.81
2023-10-05T13:45:34.897Z,20.80
2023-10-05T13:48:04.115Z,20.78
2023-10-05T13:50:32.679Z,20.72
2023-10-05T13:53:02.739Z,20.70
2023-10-05T13:55:34.326Z,20.65
2023-10-05T13:58:04.114Z,20.62
2023-10-05T14:00:32.580Z,20.52
2023-10-05T14:03:04.310Z,20.44
2023-10-05T14:05:33.112Z,20.38
2023-10-05T14:08:04.060Z,20.36
2023-10-05T14:10:32.791Z,20.33
2023-10-05T14:13:01.326Z,20.30
2023-10-05T14:15:29.589Z,20.28
2023-10-05T14:17:58.314Z,20.21
2023-10-05T14:20:26.885Z,20.15
2023-10-05T14:22:57.056Z,20.11
2023-10-05T14:25:27.325Z,20.07
2023-10-05T14:27:55.610Z,19.98
2023-10-05T14:30:24.872Z,19.92
2023-10-05T14:32:53.530Z,19.82
2023-10-05T14:35:22.436Z,19.65
2023-10-05T14:37:56.317Z,19.48
2023-10-05T14:40:25.456Z,19.39
2023-10-05T14:42:57.119Z,19.30
2023-10-05T14:45:28.324Z,19.18
2023-10-05T14:47:59.617Z,19.12
2023-10-05T14:50:27.938Z,19.04
2023-10-05T14:52:57.006Z,18.99
2023-10-05T14:55:27.004Z,18.95
2023-10-05T14:57:56.502Z,18.89
2023-10-05T15:00:28.081Z,18.86
2023-10-05T15:02:56.983Z,18.81
2023-10-05T15:05:25.218Z,18.75
2023-10-05T15:07:59.853Z,18.72
2023-10-05T15:10:29.200Z,18.68
2023-10-05T15:12:58.279Z,18.60
2023-10-05T15:15:26.543Z,18.52
2023-10-05T15:17:55.718Z,18.41
2023-10-05T15:20:24.209Z,18.34
2023-10-05T15:22:55.899Z,18.28
2023-10-05T15:25:25.309Z,18.17
2023-10-05T15:27:57.569Z,18.01
2023-10-05T15:30:25.619Z,17.88
2023-10-05T15:32:53.727Z,17.76
2023-10-05T15:35:23.790Z,17.65
2023-10-05T15:37:52.636Z,17.59
2023-10-05T15:40:21.718Z,17.51
2023-10-05T15:42:50.994Z,17.43
2023-10-05T15:45:24.737Z,17.38
2023-10-05T15:47:56.020Z,17.31
2023-10-05T15:50:30.009Z,17.22
2023-10-05T15:53:01.194Z,17.14
2023-10-05T15:55:32.602Z,17.08
2023-10-05T15:58:08.325Z,17.03
2023-10-05T16:00:37.502Z,16.91
2023-10-05T16:03:12.608Z,16.76
2023-10-05T16:05:43.245Z,16.64
2023-10-05T16:08:11.773Z,16.53
2023-10-05T16:10:40.846Z,16.41
2023-10-05T16:13:09.745Z,16.30
2023-10-05T16:15:40.611Z,16.21
2023-10-05T16:18:11.729Z,16.10
2023-10-05T16:20:42.555Z,15.99
2023-10-05T16:23:12.908Z,15.89
2023-10-05T16:25:41.886Z,15.76
2023-10-05T16:28:10.360Z,15.69
2023-10-05T16:30:38.868Z,15.65
2023-10-05T16:33:07.889Z,15.63
2023-10-05T16:35:36.811Z,15.59
2023-10-05T16:38:06.252Z,15.54
2023-10-05T16:40:34.913Z,15.46
2023-10-05T16:43:03.814Z,15.35
2023-10-05T16:45:31.988Z,15.29
2023-10-05T16:48:00.200Z,15.23
2023-10-05T16:50:29.302Z,15.14
2023-10-05T16:52:57.988Z,15.09
2023-10-05T16:55:26.714Z,15.03
2023-10-05T16:57:56.332Z,15.01
2023-10-05T17:00:24.869Z,14.95
2023-10-05T17:02:55.507Z,14.95
2023-10-05T17:05:30.072Z,14.92
2023-10-05T17:08:04.379Z,14.87
2023-10-05T17:10:32.648Z,14.84
2023-10-05T17:13:00.981Z,14.84
2023-10-05T17:15:29.473Z,14.82
2023-10-05T17:17:57.783Z,14.82
2023-10-05T17:20:25.994Z,14.82
2023-10-05T17:22:54.498Z,14.81
2023-10-05T17:25:23.472Z,14.75
2023-10-05T17:27:54.857Z,14.72
2023-10-05T17:30:23.824Z,14.71
2023-10-05T17:32:52.871Z,14.66
2023-10-05T17:35:24.237Z,14.60
2023-10-05T17:37:54.260Z,14.51
2023-10-05T17:40:23.059Z,14.44
2023-10-05T17:42:52.339Z,14.38
2023-10-05T17:45:20.817Z,14.31
2023-10-05T17:47:52.857Z,14.28
2023-10-05T17:50:20.985Z,14.26
2023-10-05T17:52:50.040Z,14.23
2023-10-05T17:55:18.751Z,14.22
2023-10-05T17:57:47.034Z,14.23
2023-10-05T18:00:17.427Z,14.18
2023-10-05T18:02:50.291Z,14.14
2023-10-05T18:05:23.698Z,14.13
2023-10-05T18:07:51.886Z,14.06
2023-10-05T18:10:20.216Z,14.00
2023-10-05T18:12:48.384Z,13.99
2023-10-05T18:15:18.568Z,13.97
2023-10-05T18:17:49.733Z,13.96
2023-10-05T18:20:20.916Z,13.92
2023-10-05T18:22:49.043Z,13.86
2023-10-05T18:25:20.518Z,13.80
2023-10-05T18:27:48.770Z,13.74
2023-10-05T18:30:19.164Z,13.71
2023-10-05T18:32:47.351Z,13.66
2023-10-05T18:35:15.442Z,13.62
2023-10-05T18:37:43.609Z,13.62
2023-10-05T18:40:12.173Z,13.65
2023-10-05T18:42:45.290Z,13.68
2023-10-05T18:45:14.736Z,13.65
2023-10-05T18:47:43.847Z,13.63
2023-10-05T18:50:14.091Z,13.61
2023-10-05T18:52:45.014Z,13.60
2023-10-05T18:55:13.279Z,13.57
2023-10-05T18:57:41.375Z,13.54
2023-10-05T19:00:12.666Z,13.44
2023-10-05T19:02:43.250Z,13.27
2023-10-05T19:05:11.749Z,13.13
2023-10-05T19:07:44.786Z,13.03
2023-10-05T19:10:15.983Z,12.94
2023-10-05T19:12:46.131Z,12.86
2023-10-05T19:15:17.351Z,12.77
2023-10-05T19:17:45.707Z,12.69
2023-10-05T19:20:13.858Z,12.61
2023-10-05T19:22:42.000Z,12.54
2023-10-05T19:25:12.240Z,12.49
2023-10-05T19:27:41.083Z,12.44
2023-10-05T19:30:11.769Z,12.38
2023-10-05T19:32:41.320Z,12.30
2023-10-05T19:35:10.630Z,12.24
2023-10-05T19:37:38.853Z,12.16
2023-10-05T19:40:08.424Z,12.09
2023-10-05T19:42:36.517Z,11.99
2023-10-05T19:45:05.994Z,11.91
2023-10-05T19:47:34.142Z,11.85
2023-10-05T19:50:02.514Z,11.83
2023-10-05T19:52:30.742Z,11.78
2023-10-05T19:54:58.889Z,11.73
2023-10-05T19:57:27.112Z,11.70
2023-10-05T19:59:57.468Z,11.68
2023-10-05T20:02:25.769Z,11.68
2023-10-05T20:04:53.862Z,11.70
2023-10-05T20:07:22.029Z,11.70
2023-10-05T20:09:50.137Z,11.69
2023-10-05T20:12:18.271Z,11.69
2023-10-05T20:14:47.549Z,11.69
2023-10-05T20:17:15.834Z,11.69
2023-10-05T20:19:44.732Z,11.67
2023-10-05T20:22:12.716Z,11.67
2023-10-05T20:24:42.003Z,11.64
2023-10-05T20:27:16.794Z,11.60
2023-10-05T20:29:45.847Z,11.53
2023-10-05T20:32:15.066Z,11.48
2023-10-05T20:34:44.524Z,11.42
2023-10-05T20:37:13.971Z,11.37
2023-10-05T20:39:45.210Z,11.34
2023-10-05T20:42:13.359Z,11.29
2023-10-05T20:44:41.462Z,11.24
2023-10-05T20:47:09.764Z,11.17
2023-10-05T20:49:38.945Z,11.09
2023-10-05T20:52:07.402Z,11.02
2023-10-05T20:54:35.498Z,10.96
2023-10-05T20:57:05.393Z,10.92
2023-10-05T20:59:33.818Z,10.91
2023-10-05T21:02:02.123Z,10.85
2023-10-05T21:04:33.149Z,10.82
2023-10-05T21:07:01.917Z,10.81
2023-10-05T21:09:30.617Z,10.81
2023-10-05T21:11:59.403Z,10.81
2023-10-05T21:14:29.148Z,10.81
2023-10-05T21:16:57.584Z,10.79
2023-10-05T21:19:26.049Z,10.75
2023-10-05T21:21:54.285Z,10.70
2023-10-05T21:24:22.679Z,10.68
2023-10-05T21:26:50.800Z,10.68
2023-10-05T21:29:19.069Z,10.66
2023-10-05T21:31:47.341Z,10.56
2023-10-05T21:34:16.478Z,10.54
2023-10-05T21:36:45.555Z,10.51
2023-10-05T21:39:13.959Z,10.49
2023-10-05T21:41:42.700Z,10.48
2023-10-05T21:44:10.772Z,10.50
2023-10-05T21:46:39.156Z,10.49
2023-10-05T21:49:09.070Z,10.50
2023-10-05T21:51:37.554Z,10.52
2023-10-05T21:54:07.064Z,10.52
2023-10-05T21:56:36.259Z,10.52
2023-10-05T21:59:04.773Z,10.51
2023-10-05T22:01:34.041Z,10.48
2023-10-05T22:04:02.373Z,10.43
2023-10-05T22:06:31.086Z,10.32
2023-10-05T22:08:59.117Z,10.19
2023-10-05T22:11:27.246Z,10.12
2023-10-05T22:13:55.350Z,10.03
2023-10-05T22:16:23.723Z,9.96
2023-10-05T22:18:51.913Z,9.90
2023-10-05T22:21:20.027Z,9.87
2023-10-05T22:23:48.055Z,9.81
2023-10-05T22:26:16.113Z,9.72
2023-10-05T22:28:44.213Z,9.69
2023-10-05T22:31:12.345Z,9.67
2023-10-05T22:33:40.441Z,9.67
2023-10-05T22:36:09.598Z,9.66
2023-10-05T22:38:44.259Z,9.68
2023-10-05T22:41:13.446Z,9.72
2023-10-05T22:43:44.288Z,9.73
2023-10-05T22:46:13.805Z,9.74
2023-10-05T22:48:43.088Z,9.76
2023-10-05T22:51:16.481Z,9.78
2023-10-05T22:53:46.630Z,9.83
2023-10-05T22:56:14.815Z,9.83
2023-10-05T22:58:43.008Z,9.86
2023-10-05T23:01:11.414Z,9.89
2023-10-05T23:03:41.128Z,9.93
2023-10-05T23:06:09.877Z,9.95
2023-10-05T23:08:38.002Z,9.97
2023-10-05T23:11:09.135Z,9.98
2023-10-05T23:13:41.998Z,10.01
2023-10-05T23:16:10.107Z,10.03
2023-10-05T23:18:38.343Z,10.03
2023-10-05T23:21:08.512Z,9.99
2023-10-05T23:23:39.230Z,9.97
2023-10-05T23:26:08.257Z,9.95
2023-10-05T23:28:36.961Z,9.95
2023-10-05T23:31:12.589Z,9.88
2023-10-05T23:33:42.795Z,9.85
2023-10-05T23:36:10.879Z,9.78
2023-10-05T23:38:40.886Z,9.79
2023-10-05T23:41:12.050Z,9.80
2023-10-05T23:43:40.194Z,9.82
2023-10-05T23:46:08.457Z,9.82
2023-10-05T23:48:36.495Z,9.78
2023-10-05T23:51:08.692Z,9.77
2023-10-05T23:53:37.553Z,9.77
2023-10-05T23:56:10.644Z,9.77
2023-10-05T23:58:39.235Z,9.78
